createdAt,value
2022-09-21T00:01:30.719Z,2.20
2022-09-21T00:04:00.860Z,2.00
2022-09-21T00:06:30.548Z,2.17
2022-09-21T00:08:59.756Z,2.20
2022-09-21T00:11:29.471Z,2.13
2022-09-21T00:14:00.655Z,2.17
2022-09-21T00:16:29.515Z,2.60
2022-09-21T00:18:57.102Z,4.20
2022-09-21T00:21:24.933Z,2.40
2022-09-21T00:23:52.588Z,2.60
2022-09-21T00:26:23.404Z,1.80
2022-09-21T00:28:54.465Z,2.80
2022-09-21T00:31:22.557Z,2.37
2022-09-21T00:33:51.078Z,2.70
2022-09-21T00:36:20.220Z,1.90
2022-09-21T00:38:51.047Z,2.77
2022-09-21T00:41:19.140Z,2.50
2022-09-21T00:43:50.697Z,2.10
2022-09-21T00:46:27.396Z,2.10
2022-09-21T00:48:55.258Z,2.33
2022-09-21T00:51:22.838Z,2.47
2022-09-21T00:53:57.689Z,2.80
2022-09-21T00:56:25.532Z,2.23
2022-09-21T00:58:55.736Z,2.27
2022-09-21T01:01:24.841Z,2.40
2022-09-21T01:03:56.245Z,2.43
2022-09-21T01:06:24.505Z,2.00
2022-09-21T01:08:56.296Z,2.07
2022-09-21T01:11:31.175Z,2.10
2022-09-21T01:14:16.338Z,2.43
2022-09-21T01:16:53.325Z,2.30
2022-09-21T01:19:41.035Z,3.63
2022-09-21T01:22:18.792Z,2.20
2022-09-21T01:25:00.743Z,2.27
2022-09-21T01:27:45.971Z,2.03
2022-09-21T01:30:17.745Z,2.23
2022-09-21T01:32:52.632Z,1.90
2022-09-21T01:35:24.241Z,2.00
2022-09-21T01:37:57.525Z,2.90
2022-09-21T01:40:33.163Z,2.10
2022-09-21T01:43:05.667Z,2.30
2022-09-21T01:45:40.180Z,2.70
2022-09-21T01:48:09.100Z,2.20
2022-09-21T01:50:41.445Z,2.23
2022-09-21T01:53:13.888Z,2.40
2022-09-21T01:55:46.060Z,2.47
2022-09-21T01:58:19.688Z,1.60
2022-09-21T02:00:53.159Z,2.20
2022-09-21T02:03:28.263Z,2.30
2022-09-21T02:05:58.039Z,2.67
2022-09-21T02:08:27.591Z,2.53
2022-09-21T02:10:55.715Z,2.60
2022-09-21T02:13:27.552Z,2.50
2022-09-21T02:16:10.705Z,2.30
2022-09-21T02:18:50.564Z,2.30
2022-09-21T02:21:26.482Z,2.50
2022-09-21T02:24:06.824Z,2.30
2022-09-21T02:26:40.371Z,2.37
2022-09-21T02:29:17.788Z,2.77
2022-09-21T02:31:53.015Z,3.23
2022-09-21T02:34:28.552Z,2.47
2022-09-21T02:37:03.489Z,2.50
2022-09-21T02:39:35.071Z,2.40
2022-09-21T02:42:07.555Z,2.27
2022-09-21T02:44:40.455Z,2.43
2022-09-21T02:47:15.350Z,2.37
2022-09-21T02:49:47.420Z,2.30
2022-09-21T02:52:18.171Z,2.10
2022-09-21T02:54:49.344Z,2.00
2022-09-21T02:57:19.196Z,2.00
2022-09-21T02:59:46.730Z,2.27
2022-09-21T03:02:15.544Z,2.13
2022-09-21T03:04:47.076Z,2.27
2022-09-21T03:07:15.480Z,2.00
2022-09-21T03:09:43.019Z,2.23
2022-09-21T03:12:10.525Z,2.20
2022-09-21T03:14:38.055Z,2.07
2022-09-21T03:17:05.614Z,2.03
2022-09-21T03:19:34.384Z,2.27
2022-09-21T03:22:01.825Z,1.77
2022-09-21T03:24:47.269Z,2.00
2022-09-21T03:27:16.010Z,2.33
2022-09-21T03:29:43.768Z,2.40
2022-09-21T03:32:11.738Z,2.30
2022-09-21T03:34:44.612Z,2.10
2022-09-21T03:37:12.548Z,2.27
2022-09-21T03:39:40.047Z,2.00
2022-09-21T03:42:09.089Z,2.93
2022-09-21T03:44:37.088Z,3.50
2022-09-21T03:47:06.638Z,2.78
2022-09-21T03:49:34.855Z,2.63
2022-09-21T03:52:04.286Z,2.70
2022-09-21T03:54:31.721Z,2.50
2022-09-21T03:56:59.182Z,2.57
2022-09-21T03:59:26.624Z,2.67
2022-09-21T04:01:54.115Z,2.57
2022-09-21T04:04:21.652Z,2.50
2022-09-21T04:06:49.081Z,2.67
2022-09-21T04:09:17.847Z,2.60
2022-09-21T04:11:46.151Z,2.90
2022-09-21T04:14:13.837Z,3.28
2022-09-21T04:16:41.499Z,3.70
2022-09-21T04:19:09.004Z,2.60
2022-09-21T04:21:36.630Z,2.73
2022-09-21T04:24:05.067Z,3.40
2022-09-21T04:26:35.721Z,3.27
2022-09-21T04:29:03.909Z,3.20
2022-09-21T04:31:31.848Z,3.60
2022-09-21T04:33:59.792Z,2.80
2022-09-21T04:36:33.120Z,5.40
2022-09-21T04:39:03.280Z,3.72
2022-09-21T04:41:30.940Z,3.70
2022-09-21T04:43:59.784Z,3.20
2022-09-21T04:46:27.250Z,3.50
2022-09-21T04:48:54.932Z,5.73
2022-09-21T04:51:22.508Z,5.30
2022-09-21T04:53:50.105Z,4.23
2022-09-21T04:56:18.044Z,4.10
2022-09-21T04:58:45.877Z,4.30
2022-09-21T05:01:14.690Z,4.50
2022-09-21T05:03:42.287Z,3.93
2022-09-21T05:06:13.335Z,4.10
2022-09-21T05:08:58.644Z,3.83
2022-09-21T05:11:26.691Z,5.00
2022-09-21T05:13:54.341Z,3.97
2022-09-21T05:16:23.124Z,4.70
2022-09-21T05:18:54.251Z,4.60
2022-09-21T05:21:22.137Z,4.27
2022-09-21T05:23:49.560Z,4.47
2022-09-21T05:26:17.015Z,4.43
2022-09-21T05:28:45.164Z,4.63
2022-09-21T05:31:26.626Z,5.23
2022-09-21T05:34:00.004Z,9.70
2022-09-21T05:36:40.824Z,9.97
2022-09-21T05:39:09.233Z,7.80
2022-09-21T05:41:37.468Z,5.50
2022-09-21T05:44:05.738Z,5.67
2022-09-21T05:46:39.553Z,5.40
2022-09-21T05:49:15.914Z,5.27
2022-09-21T05:51:51.343Z,4.03
2022-09-21T05:54:26.906Z,4.03
2022-09-21T05:56:59.551Z,4.70
2022-09-21T05:59:46.917Z,5.17
2022-09-21T06:02:24.554Z,5.00
2022-09-21T06:04:57.351Z,4.30
2022-09-21T06:07:24.848Z,4.57
2022-09-21T06:09:52.496Z,4.60
2022-09-21T06:12:19.973Z,4.60
2022-09-21T06:14:47.431Z,4.70
2022-09-21T06:17:15.066Z,4.23
2022-09-21T06:19:42.606Z,4.77
2022-09-21T06:22:11.435Z,4.83
2022-09-21T06:24:39.090Z,6.37
2022-09-21T06:27:06.788Z,5.33
2022-09-21T06:29:34.345Z,7.70
2022-09-21T06:32:02.780Z,5.90
2022-09-21T06:34:34.120Z,9.27
2022-09-21T06:37:01.586Z,5.33
2022-09-21T06:39:31.611Z,5.80
2022-09-21T06:41:59.430Z,5.10
2022-09-21T06:44:27.025Z,5.90
2022-09-21T06:46:54.616Z,5.90
2022-09-21T06:49:22.073Z,5.93
2022-09-21T06:51:49.812Z,6.40
2022-09-21T06:54:18.324Z,6.07
2022-09-21T06:56:47.191Z,7.60
2022-09-21T06:59:14.690Z,7.10
2022-09-21T07:04:33.930Z,6.20
2022-09-21T07:07:04.345Z,9.53
2022-09-21T07:12:21.157Z,7.57
2022-09-21T07:14:48.646Z,7.17
2022-09-21T07:17:16.292Z,7.47
2022-09-21T07:19:43.763Z,7.80
2022-09-21T07:22:11.257Z,6.73
2022-09-21T07:24:38.681Z,7.60
2022-09-21T07:27:06.246Z,8.07
2022-09-21T07:29:35.055Z,8.30
2022-09-21T07:32:02.989Z,8.50
2022-09-21T07:34:30.453Z,8.00
2022-09-21T07:36:57.880Z,9.80
2022-09-21T07:39:25.292Z,9.50
2022-09-21T07:41:52.748Z,8.10
2022-09-21T07:44:20.588Z,10.10
2022-09-21T07:46:50.553Z,9.40
2022-09-21T07:49:18.171Z,9.20
2022-09-21T07:51:45.677Z,10.07
2022-09-21T07:54:15.082Z,8.87
2022-09-21T07:57:03.251Z,9.00
2022-09-21T07:59:32.723Z,11.57
2022-09-21T08:02:01.603Z,8.70
2022-09-21T08:04:29.136Z,10.57
2022-09-21T08:06:56.688Z,9.23
2022-09-21T08:09:24.166Z,11.57
2022-09-21T08:11:52.912Z,11.40
2022-09-21T08:14:25.341Z,9.23
2022-09-21T08:16:54.145Z,11.07
2022-09-21T08:19:25.601Z,9.80
2022-09-21T08:21:57.214Z,10.60
2022-09-21T08:24:26.867Z,9.63
2022-09-21T08:26:55.610Z,10.17
2022-09-21T08:29:23.118Z,9.50
2022-09-21T08:31:50.618Z,9.13
2022-09-21T08:34:19.516Z,10.47
2022-09-21T08:36:53.014Z,9.40
2022-09-21T08:39:22.607Z,10.93
2022-09-21T08:42:10.526Z,9.47
2022-09-21T08:44:41.636Z,9.87
2022-09-21T08:47:16.438Z,8.57
2022-09-21T08:49:50.495Z,8.40
2022-09-21T08:52:22.488Z,8.40
2022-09-21T08:54:56.115Z,8.37
2022-09-21T08:57:27.387Z,8.30
2022-09-21T08:59:54.924Z,6.77
2022-09-21T09:02:40.500Z,5.70
2022-09-21T09:05:27.014Z,5.50
2022-09-21T09:08:27.164Z,5.93
2022-09-21T09:11:06.527Z,5.57
2022-09-21T09:13:51.132Z,6.13
2022-09-21T09:16:26.996Z,5.03
2022-09-21T09:18:58.704Z,4.90
2022-09-21T09:21:32.197Z,4.87
2022-09-21T09:24:12.400Z,4.03
2022-09-21T09:26:46.747Z,3.13
2022-09-21T09:29:21.254Z,3.23
2022-09-21T09:31:50.048Z,4.00
2022-09-21T09:34:22.672Z,2.47
2022-09-21T09:36:58.973Z,3.10
2022-09-21T09:39:31.285Z,3.23
2022-09-21T09:42:30.255Z,3.97
2022-09-21T09:45:14.888Z,2.30
2022-09-21T09:47:54.843Z,2.20
2022-09-21T09:50:28.338Z,1.83
2022-09-21T09:53:04.887Z,2.37
2022-09-21T09:55:39.457Z,2.50
2022-09-21T09:58:17.726Z,2.03
2022-09-21T10:00:46.081Z,1.80
2022-09-21T10:03:18.302Z,2.27
2022-09-21T10:05:46.410Z,1.60
2022-09-21T10:08:41.951Z,1.90
2022-09-21T10:11:12.136Z,1.60
2022-09-21T10:13:42.427Z,1.90
2022-09-21T10:16:14.725Z,1.47
2022-09-21T10:18:46.745Z,2.40
2022-09-21T10:21:20.094Z,1.70
2022-09-21T10:23:49.729Z,2.07
2022-09-21T10:26:20.105Z,2.80
2022-09-21T10:28:59.805Z,2.30
2022-09-21T10:31:29.767Z,1.40
2022-09-21T10:34:08.451Z,1.40
2022-09-21T10:36:37.689Z,1.40
2022-09-21T10:39:26.747Z,1.33
2022-09-21T10:42:00.679Z,1.88
2022-09-21T10:44:33.767Z,1.13
2022-09-21T10:47:05.116Z,1.43
2022-09-21T10:49:35.029Z,3.17
2022-09-21T10:52:03.280Z,1.40
2022-09-21T10:54:34.367Z,1.10
2022-09-21T10:57:11.307Z,1.63
2022-09-21T10:59:38.839Z,1.37
2022-09-21T11:02:27.882Z,2.00
2022-09-21T11:04:59.988Z,1.80
2022-09-21T11:07:34.435Z,1.50
2022-09-21T11:10:12.031Z,1.70
2022-09-21T11:12:50.816Z,1.30
2022-09-21T11:15:30.653Z,1.33
2022-09-21T11:18:05.939Z,1.60
2022-09-21T11:20:40.659Z,1.40
2022-09-21T11:23:17.912Z,1.80
2022-09-21T11:25:54.284Z,1.23
2022-09-21T11:28:29.628Z,1.30
2022-09-21T11:31:24.945Z,1.43
2022-09-21T11:34:12.383Z,1.63
2022-09-21T11:36:47.523Z,1.50
2022-09-21T11:39:25.852Z,1.23
2022-09-21T11:42:05.693Z,1.40
2022-09-21T11:44:50.693Z,1.97
2022-09-21T11:47:31.355Z,1.23
2022-09-21T11:50:30.206Z,1.70
2022-09-21T11:53:22.916Z,1.10
2022-09-21T11:56:05.356Z,1.30
2022-09-21T11:58:40.232Z,1.50
2022-09-21T12:01:28.537Z,1.17
2022-09-21T12:04:24.020Z,1.40
2022-09-21T12:07:07.189Z,1.53
2022-09-21T12:10:06.319Z,1.50
2022-09-21T12:12:43.594Z,1.33
2022-09-21T12:15:18.764Z,1.30
2022-09-21T12:17:55.205Z,2.87
2022-09-21T12:20:31.791Z,1.30
2022-09-21T12:23:04.606Z,1.53
2022-09-21T12:25:36.929Z,1.10
2022-09-21T12:28:11.436Z,1.33
2022-09-21T12:30:40.683Z,1.20
2022-09-21T12:33:16.246Z,0.80
2022-09-21T12:35:47.527Z,1.00
2022-09-21T12:38:18.977Z,1.57
2022-09-21T12:40:52.251Z,1.50
2022-09-21T12:43:44.310Z,1.20
2022-09-21T12:46:18.083Z,1.03
2022-09-21T12:48:47.653Z,1.23
2022-09-21T12:51:19.898Z,1.17
2022-09-21T12:53:51.234Z,0.90
2022-09-21T12:56:30.726Z,1.00
2022-09-21T12:59:09.669Z,0.90
2022-09-21T13:01:45.214Z,0.80
2022-09-21T13:04:41.574Z,0.90
2022-09-21T13:07:33.423Z,1.10
2022-09-21T13:10:02.989Z,1.10
2022-09-21T13:12:38.426Z,1.23
2022-09-21T13:15:16.029Z,1.10
2022-09-21T13:17:43.748Z,1.17
2022-09-21T13:20:20.441Z,1.43
2022-09-21T13:22:50.375Z,0.90
2022-09-21T13:25:23.771Z,1.27
2022-09-21T13:28:04.180Z,1.17
2022-09-21T13:30:38.378Z,1.20
2022-09-21T13:33:33.071Z,0.90
2022-09-21T13:36:12.188Z,1.00
2022-09-21T13:38:59.238Z,1.00
2022-09-21T13:41:45.769Z,0.87
2022-09-21T13:44:37.965Z,0.88
2022-09-21T13:47:05.994Z,0.90
2022-09-21T13:49:41.835Z,1.40
2022-09-21T13:52:39.330Z,0.93
2022-09-21T13:55:19.104Z,0.77
2022-09-21T13:57:49.527Z,1.03
2022-09-21T14:00:36.438Z,1.07
2022-09-21T14:03:07.282Z,1.30
2022-09-21T14:05:40.624Z,2.00
2022-09-21T14:08:27.781Z,2.00
2022-09-21T14:10:58.840Z,2.17
2022-09-21T14:13:31.761Z,2.07
2022-09-21T14:16:27.638Z,1.87
2022-09-21T14:18:55.794Z,1.70
2022-09-21T14:21:23.881Z,1.97
2022-09-21T14:24:21.104Z,1.27
2022-09-21T14:26:55.141Z,1.30
2022-09-21T14:29:27.639Z,1.10
2022-09-21T14:31:59.580Z,1.10
2022-09-21T14:34:31.565Z,1.20
2022-09-21T14:37:03.571Z,1.60
2022-09-21T14:39:34.960Z,2.13
2022-09-21T14:42:12.314Z,1.10
2022-09-21T14:44:40.835Z,1.20
2022-09-21T14:47:36.756Z,1.00
2022-09-21T14:50:30.448Z,1.20
2022-09-21T14:53:27.931Z,1.67
2022-09-21T14:56:12.236Z,1.20
2022-09-21T14:58:52.847Z,1.00
2022-09-21T15:01:37.733Z,1.00
2022-09-21T15:04:28.138Z,1.67
2022-09-21T15:07:23.898Z,1.83
2022-09-21T15:10:30.398Z,2.13
2022-09-21T15:13:02.961Z,2.53
2022-09-21T15:15:40.587Z,1.70
2022-09-21T15:18:19.981Z,1.73
2022-09-21T15:21:00.145Z,4.53
2022-09-21T15:23:29.124Z,1.07
2022-09-21T15:26:00.337Z,2.13
2022-09-21T15:28:57.942Z,1.00
2022-09-21T15:31:25.981Z,1.17
2022-09-21T15:33:54.348Z,2.97
2022-09-21T15:36:24.917Z,2.10
2022-09-21T15:38:56.494Z,1.13
2022-09-21T15:41:42.268Z,0.93
2022-09-21T15:44:19.320Z,0.90
2022-09-21T15:46:50.243Z,0.80
2022-09-21T15:49:21.892Z,0.80
2022-09-21T15:51:53.407Z,0.80
2022-09-21T15:54:32.063Z,1.10
2022-09-21T15:57:04.652Z,0.93
2022-09-21T15:59:36.397Z,1.00
2022-09-21T16:02:13.234Z,0.83
2022-09-21T16:04:52.057Z,1.10
2022-09-21T16:07:27.898Z,1.07
2022-09-21T16:09:55.369Z,1.00
2022-09-21T16:12:41.976Z,0.90
2022-09-21T16:15:18.047Z,0.97
2022-09-21T16:18:01.466Z,0.80
2022-09-21T16:20:50.532Z,1.00
2022-09-21T16:23:20.217Z,0.90
2022-09-21T16:25:55.145Z,1.47
2022-09-21T16:28:30.219Z,0.90
2022-09-21T16:31:00.201Z,1.00
2022-09-21T16:33:40.926Z,1.00
2022-09-21T16:36:34.808Z,0.90
2022-09-21T16:39:06.044Z,0.90
2022-09-21T16:41:36.692Z,1.08
2022-09-21T16:44:04.476Z,1.30
2022-09-21T16:46:33.451Z,0.90
2022-09-21T16:49:02.039Z,1.23
2022-09-21T16:51:29.710Z,1.23
2022-09-21T16:53:58.408Z,1.10
2022-09-21T16:56:27.001Z,1.30
2022-09-21T16:58:54.776Z,1.03
2022-09-21T17:01:22.297Z,2.17
2022-09-21T17:03:51.312Z,1.17
2022-09-21T17:06:21.634Z,1.23
2022-09-21T17:08:50.800Z,1.60
2022-09-21T17:11:20.531Z,1.37
2022-09-21T17:13:48.085Z,1.50
2022-09-21T17:16:18.152Z,1.70
2022-09-21T17:18:46.272Z,1.80
2022-09-21T17:21:15.633Z,2.23
2022-09-21T17:23:43.396Z,2.50
2022-09-21T17:26:17.322Z,1.80
2022-09-21T17:28:45.546Z,2.83
2022-09-21T17:31:14.838Z,2.40
2022-09-21T17:33:42.560Z,2.13
2022-09-21T17:36:13.855Z,3.10
2022-09-21T17:38:42.967Z,2.97
2022-09-21T17:41:18.194Z,3.53
2022-09-21T17:43:55.057Z,3.57
2022-09-21T17:46:29.020Z,3.33
2022-09-21T17:48:56.944Z,3.27
2022-09-21T17:51:39.108Z,3.27
2022-09-21T17:54:09.337Z,2.77
2022-09-21T17:56:44.885Z,2.93
2022-09-21T17:59:26.205Z,3.00
2022-09-21T18:01:54.259Z,2.87
2022-09-21T18:04:22.493Z,2.70
2022-09-21T18:06:50.506Z,2.67
2022-09-21T18:09:20.079Z,2.63
2022-09-21T18:12:16.285Z,2.50
2022-09-21T18:14:52.911Z,2.60
2022-09-21T18:17:39.321Z,2.23
2022-09-21T18:20:20.310Z,2.20
2022-09-21T18:22:57.257Z,2.50
2022-09-21T18:25:32.165Z,2.30
2022-09-21T18:28:04.373Z,2.07
2022-09-21T18:30:32.720Z,2.33
2022-09-21T18:33:10.783Z,1.90
2022-09-21T18:35:48.201Z,1.70
2022-09-21T18:38:24.481Z,1.50
2022-09-21T18:41:11.253Z,1.77
2022-09-21T18:43:57.722Z,1.33
2022-09-21T18:46:33.243Z,2.60
2022-09-21T18:49:05.559Z,2.17
2022-09-21T18:51:41.821Z,1.83
2022-09-21T18:54:20.933Z,2.50
2022-09-21T18:56:50.410Z,2.90
2022-09-21T18:59:18.520Z,2.47
2022-09-21T19:01:48.107Z,2.67
2022-09-21T19:04:17.144Z,2.60
2022-09-21T19:06:50.630Z,1.93
2022-09-21T19:09:31.985Z,2.10
2022-09-21T19:12:11.649Z,1.90
2022-09-21T19:14:48.145Z,3.07
2022-09-21T19:17:26.618Z,2.60
2022-09-21T19:20:04.926Z,3.20
2022-09-21T19:22:41.993Z,2.90
2022-09-21T19:25:20.598Z,2.50
2022-09-21T19:27:55.499Z,4.03
2022-09-21T19:30:23.367Z,2.60
2022-09-21T19:32:52.964Z,2.65
2022-09-21T19:35:23.384Z,3.07
2022-09-21T19:37:53.715Z,3.30
2022-09-21T19:40:23.545Z,3.13
2022-09-21T19:43:07.795Z,3.13
2022-09-21T19:45:45.992Z,2.53
2022-09-21T19:48:16.261Z,3.60
2022-09-21T19:50:48.264Z,3.27
2022-09-21T19:53:34.340Z,3.40
2022-09-21T19:56:22.718Z,3.20
2022-09-21T19:59:09.912Z,3.30
2022-09-21T20:01:42.610Z,4.10
2022-09-21T20:04:14.971Z,3.73
2022-09-21T20:06:47.183Z,3.97
2022-09-21T20:09:20.167Z,3.23
2022-09-21T20:11:54.539Z,4.80
2022-09-21T20:14:36.262Z,3.83
2022-09-21T20:17:10.569Z,3.50
2022-09-21T20:19:46.341Z,4.10
2022-09-21T20:22:16.016Z,3.87
2022-09-21T20:24:52.675Z,4.03
2022-09-21T20:27:29.816Z,4.10
2022-09-21T20:29:59.212Z,4.60
2022-09-21T20:32:27.648Z,4.47
2022-09-21T20:34:55.125Z,4.87
2022-09-21T20:37:23.586Z,3.93
2022-09-21T20:39:51.016Z,2.93
2022-09-21T20:42:21.972Z,2.87
2022-09-21T20:44:49.379Z,3.00
2022-09-21T20:47:19.321Z,2.40
2022-09-21T20:49:47.707Z,2.90
2022-09-21T20:52:16.637Z,2.90
2022-09-21T20:54:48.949Z,3.40
2022-09-21T20:57:17.648Z,2.77
2022-09-21T20:59:45.443Z,2.50
2022-09-21T21:02:13.978Z,2.47
2022-09-21T21:04:42.888Z,2.13
2022-09-21T21:07:10.411Z,2.30
2022-09-21T21:09:37.825Z,2.10
2022-09-21T21:12:05.692Z,2.58
2022-09-21T21:14:33.554Z,2.43
2022-09-21T21:17:04.148Z,3.33
2022-09-21T21:19:32.871Z,3.00
2022-09-21T21:22:01.641Z,3.07
2022-09-21T21:24:41.570Z,3.40
2022-09-21T21:27:13.633Z,3.67
2022-09-21T21:29:42.163Z,2.77
2022-09-21T21:32:10.623Z,3.10
2022-09-21T21:34:38.299Z,3.03
2022-09-21T21:37:07.221Z,3.80
2022-09-21T21:39:34.716Z,2.63
2022-09-21T21:42:02.411Z,2.90
2022-09-21T21:44:30.181Z,3.20
2022-09-21T21:47:06.152Z,3.07
2022-09-21T21:49:37.712Z,4.00
2022-09-21T21:52:08.236Z,3.83
2022-09-21T21:54:37.712Z,3.37
2022-09-21T21:57:05.727Z,3.83
2022-09-21T21:59:33.399Z,3.67
2022-09-21T22:02:02.184Z,3.63
2022-09-21T22:04:29.661Z,2.80
2022-09-21T22:06:57.189Z,2.67
2022-09-21T22:09:28.725Z,3.07
2022-09-21T22:11:56.387Z,2.67
2022-09-21T22:14:23.968Z,2.67
2022-09-21T22:16:51.789Z,2.83
2022-09-21T22:19:19.264Z,2.60
2022-09-21T22:21:51.753Z,2.77
2022-09-21T22:24:21.943Z,2.47
2022-09-21T22:26:50.982Z,2.30
2022-09-21T22:29:18.456Z,2.63
2022-09-21T22:31:48.147Z,2.17
2022-09-21T22:34:15.964Z,1.90
2022-09-21T22:36:44.370Z,2.27
2022-09-21T22:39:12.792Z,2.30
2022-09-21T22:41:42.053Z,2.97
2022-09-21T22:44:11.535Z,3.20
2022-09-21T22:46:39.843Z,2.83
2022-09-21T22:49:07.755Z,2.60
2022-09-21T22:51:36.133Z,3.10
2022-09-21T22:54:03.561Z,2.77
2022-09-21T22:56:32.693Z,3.50
2022-09-21T22:59:03.295Z,2.93
2022-09-21T23:01:34.639Z,3.77
2022-09-21T23:04:04.563Z,3.70
2022-09-21T23:06:34.059Z,4.13
2022-09-21T23:09:02.961Z,3.97
2022-09-21T23:11:32.114Z,3.60
2022-09-21T23:14:00.665Z,3.90
2022-09-21T23:16:29.949Z,3.87
2022-09-21T23:18:59.064Z,3.77
2022-09-21T23:21:28.443Z,3.83
2022-09-21T23:23:56.740Z,3.27
2022-09-21T23:26:25.992Z,3.77
2022-09-21T23:28:55.713Z,3.20
2022-09-21T23:31:24.380Z,2.40
2022-09-21T23:33:53.647Z,3.23
2022-09-21T23:36:25.828Z,2.80
2022-09-21T23:38:53.600Z,2.70
2022-09-21T23:41:27.305Z,3.10
2022-09-21T23:43:55.466Z,2.90
2022-09-21T23:46:24.472Z,3.00
2022-09-21T23:48:52.109Z,2.23
2022-09-21T23:51:20.692Z,2.70
2022-09-21T23:53:50.336Z,3.10
2022-09-21T23:56:19.432Z,2.70
2022-09-21T23:58:47.711Z,2.83
